»·PEaware :: N321TB KSJC-KRNO

N321TB :: KSJC-KRNO

FLIGHT INFORMATION

Flight Status: Arrived
Operator: Privately registered:
United States
More flights under this callsign
Pilot: Martin K. (31672)
Aircraft: BEECH AIRCRAFT BARON
(BE58)
More flights by this aircraft type
Origin: KSJC Mineta San Jose Intl
United States
Destination: KRNO Reno/Tahoe Intl
United States
More flights between these airports :: More routes between these airports
Route: +SNS SAC SWR V494 WAGGE
File this flight plan on PilotEdge
Remarks:
Altitude:
(Current/Filed)
13,000ft
Speed:
(Current/Filed)
180kts
Departed: 25-Nov-20 01:30 PM
Arrived: 25-Nov-20 02:51 PM
Distance/Time
Traveled:
164nm/1:20
Distance/Time
To Go:
Arrived

Flight Plot

Page will automatically refresh every two minutes.

Flight plan parsing failed; only flown route is shown


Map Options




Map Legend


Flown Route
Filed Route
Departure Airport
Arrival Airport
Navaid (VOR, NDB)
Fix

Horizontal Profiles

Position Reports

Time Latitude Longitude Heading Altitude Ground
Speed
25-Nov-20 12:49 37.357514 -121.929622 334 56ft 0kts
25-Nov-20 12:50 37.357514 -121.929622 334 56ft 0kts
25-Nov-20 12:51 37.357514 -121.929622 334 56ft 0kts
25-Nov-20 12:52 37.357514 -121.929622 334 56ft 0kts
25-Nov-20 12:53 37.357514 -121.929622 334 56ft 0kts
25-Nov-20 12:54 37.357514 -121.929622 334 56ft 0kts
25-Nov-20 12:55 37.357514 -121.929622 334 56ft 0kts
25-Nov-20 12:56 37.357514 -121.929622 334 56ft 0kts
25-Nov-20 12:57 37.357514 -121.929622 334 56ft 0kts
25-Nov-20 12:58 37.357514 -121.929622 334 56ft 0kts
25-Nov-20 12:59 37.357514 -121.929622 334 56ft 0kts
25-Nov-20 13:00 37.357514 -121.929622 334 56ft 0kts
25-Nov-20 13:01 37.357514 -121.929622 334 56ft 0kts
25-Nov-20 13:02 37.357514 -121.929622 334 56ft 0kts
25-Nov-20 13:02 37.357514 -121.929622 334 56ft 0kts
25-Nov-20 13:04 37.357514 -121.929622 334 56ft 0kts
25-Nov-20 13:04 37.357514 -121.929622 334 56ft 0kts
25-Nov-20 13:06 37.357514 -121.929622 334 56ft 0kts
25-Nov-20 13:07 37.357514 -121.929622 334 56ft 0kts
25-Nov-20 13:07 37.357514 -121.929622 334 56ft 0kts
25-Nov-20 13:09 37.357514 -121.929622 334 56ft 0kts
25-Nov-20 13:10 37.357514 -121.929622 334 56ft 0kts
25-Nov-20 13:10 37.357514 -121.929622 334 56ft 0kts
25-Nov-20 13:12 37.357514 -121.929622 334 56ft 0kts
25-Nov-20 13:12 37.357514 -121.929622 334 56ft 0kts
25-Nov-20 13:13 37.357514 -121.929622 334 56ft 0kts
25-Nov-20 13:14 37.357514 -121.929622 334 56ft 0kts
25-Nov-20 13:15 37.357514 -121.929622 334 56ft 0kts
25-Nov-20 13:16 37.357514 -121.929622 334 56ft 0kts
25-Nov-20 13:17 37.357514 -121.929622 334 56ft 0kts
25-Nov-20 13:18 37.357514 -121.929622 334 56ft 0kts
25-Nov-20 13:19 37.357514 -121.929622 334 56ft 0kts
25-Nov-20 13:20 37.357514 -121.929622 334 56ft 0kts
25-Nov-20 13:21 37.357514 -121.929622 334 56ft 0kts
25-Nov-20 13:22 37.357514 -121.929622 334 56ft 0kts
25-Nov-20 13:23 37.357514 -121.929622 334 56ft 0kts
25-Nov-20 13:24 37.357514 -121.929622 334 56ft 0kts
25-Nov-20 13:25 37.357579 -121.929655 349 56ft 4kts
25-Nov-20 13:26 37.355393 -121.926286 140 58ft 14kts
25-Nov-20 13:27 37.352701 -121.920915 138 60ft 27kts
25-Nov-20 13:28 37.352102 -121.919826 55 61ft 0kts
25-Nov-20 13:29 37.356950 -121.923561 319 65ft 91kts
25-Nov-20 13:30 37.375979 -121.949602 278 1334ft 113kts
25-Nov-20 13:31 37.349326 -121.970414 193 2828ft 134kts
25-Nov-20 13:32 37.312492 -121.977594 197 4258ft 137kts
25-Nov-20 13:33 37.274530 -121.985996 197 5738ft 140kts
25-Nov-20 13:34 37.234971 -121.994491 199 6931ft 155kts
25-Nov-20 13:35 37.191078 -122.004630 199 7841ft 164kts
25-Nov-20 13:36 37.145417 -122.013694 186 8657ft 173kts
25-Nov-20 13:37 37.115871 -121.969149 77 9373ft 183kts
25-Nov-20 13:38 37.145507 -121.941098 339 9993ft 126kts
25-Nov-20 13:39 37.181151 -121.941279 355 10573ft 131kts
25-Nov-20 13:40 37.217178 -121.932982 358 11280ft 131kts
25-Nov-20 13:41 37.252182 -121.922848 358 12051ft 126kts
25-Nov-20 13:42 37.285363 -121.912791 357 12822ft 120kts
25-Nov-20 13:43 37.317521 -121.902987 356 13559ft 118kts
25-Nov-20 13:44 37.349373 -121.893224 355 14233ft 118kts
25-Nov-20 13:45 37.381185 -121.883474 354 14819ft 120kts
25-Nov-20 13:46 37.415848 -121.873006 357 15026ft 141kts
25-Nov-20 13:47 37.455838 -121.860632 358 14996ft 152kts
25-Nov-20 13:48 37.497157 -121.847794 358 14971ft 154kts
25-Nov-20 13:49 37.538652 -121.834955 358 14977ft 153kts
25-Nov-20 13:50 37.580079 -121.822142 358 14978ft 153kts
25-Nov-20 13:51 37.621368 -121.809361 358 14977ft 153kts
25-Nov-20 13:52 37.662684 -121.796556 358 14977ft 153kts
25-Nov-20 13:53 37.704065 -121.783716 358 14978ft 153kts
25-Nov-20 13:54 37.745270 -121.770913 358 14977ft 153kts
25-Nov-20 13:55 37.786667 -121.758039 358 14976ft 153kts
25-Nov-20 13:56 37.827906 -121.745200 358 14976ft 153kts
25-Nov-20 13:57 37.869194 -121.732325 358 14986ft 153kts
25-Nov-20 13:58 37.910494 -121.719436 358 14985ft 153kts
25-Nov-20 13:59 37.951826 -121.706521 358 14985ft 153kts
25-Nov-20 14:00 37.993138 -121.693593 358 14986ft 153kts
25-Nov-20 14:01 38.034540 -121.680624 358 14985ft 153kts
25-Nov-20 14:02 38.075831 -121.667682 358 14985ft 153kts
25-Nov-20 14:03 38.117293 -121.654670 358 14992ft 154kts
25-Nov-20 14:04 38.159021 -121.641560 358 14993ft 155kts
25-Nov-20 14:05 38.200616 -121.628470 358 15011ft 154kts
25-Nov-20 14:06 38.242400 -121.615304 358 15010ft 155kts
25-Nov-20 14:07 38.284256 -121.602102 358 15010ft 155kts
25-Nov-20 14:08 38.326050 -121.588901 358 15009ft 155kts
25-Nov-20 14:09 38.367773 -121.575715 358 15009ft 154kts
25-Nov-20 14:10 38.409607 -121.562469 358 15009ft 154kts
25-Nov-20 14:11 38.450072 -121.540937 25 15039ft 174kts
25-Nov-20 14:12 38.486140 -121.497403 28 15011ft 179kts
25-Nov-20 14:13 38.521593 -121.452460 29 15009ft 179kts
25-Nov-20 14:14 38.556865 -121.407454 29 15009ft 179kts
25-Nov-20 14:15 38.592266 -121.362184 29 15006ft 180kts
25-Nov-20 14:16 38.627315 -121.317290 29 14991ft 179kts
25-Nov-20 14:17 38.662308 -121.272419 29 14995ft 178kts
25-Nov-20 14:18 38.697205 -121.227606 29 14998ft 177kts
25-Nov-20 14:19 38.732065 -121.182800 30 14996ft 178kts
25-Nov-20 14:20 38.767137 -121.137676 31 14990ft 180kts
25-Nov-20 14:21 38.802680 -121.091830 32 14984ft 182kts
25-Nov-20 14:22 38.838441 -121.045618 34 14978ft 183kts
25-Nov-20 14:23 38.874307 -120.999211 35 14978ft 183kts
25-Nov-20 14:24 38.910354 -120.952516 37 14976ft 185kts
25-Nov-20 14:25 38.946568 -120.905432 37 15047ft 183kts
25-Nov-20 14:26 38.978674 -120.853301 63 15072ft 194kts
25-Nov-20 14:27 38.999373 -120.788513 63 15049ft 197kts
25-Nov-20 14:28 39.020925 -120.723831 61 15040ft 197kts
25-Nov-20 14:29 39.043760 -120.659309 62 15035ft 198kts
25-Nov-20 14:30 39.066441 -120.594911 62 15036ft 198kts
25-Nov-20 14:31 39.089102 -120.530467 62 15036ft 198kts
25-Nov-20 14:32 39.111834 -120.465686 62 15035ft 198kts
25-Nov-20 14:33 39.134506 -120.400925 62 15028ft 198kts
25-Nov-20 14:34 39.157138 -120.336145 63 15015ft 198kts
25-Nov-20 14:35 39.179045 -120.271027 72 14997ft 199kts
25-Nov-20 14:36 39.191513 -120.201789 77 15004ft 198kts
25-Nov-20 14:37 39.202982 -120.132102 77 15005ft 198kts
25-Nov-20 14:38 39.214811 -120.059908 77 14475ft 223kts
25-Nov-20 14:39 39.227735 -119.980611 77 13569ft 223kts
25-Nov-20 14:40 39.240026 -119.904923 77 12788ft 206kts
25-Nov-20 14:41 39.237454 -119.833725 103 12030ft 197kts
25-Nov-20 14:43 39.226348 -119.765583 103 11306ft 192kts
25-Nov-20 14:44 39.238525 -119.704350 26 10518ft 183kts
25-Nov-20 14:45 39.283189 -119.710702 333 9838ft 163kts
25-Nov-20 14:46 39.323950 -119.732382 333 9133ft 154kts
25-Nov-20 14:47 39.364174 -119.753110 341 7930ft 161kts
25-Nov-20 14:48 39.406883 -119.763129 347 6441ft 159kts
25-Nov-20 14:49 39.445579 -119.766738 0 5334ft 123kts
25-Nov-20 14:50 39.477462 -119.766907 2 4698ft 99kts
25-Nov-20 14:51 39.497159 -119.766377 58 4419ft 21kts
25-Nov-20 14:52 39.501878 -119.764900 48 4419ft 7kts
25-Nov-20 14:53 39.501911 -119.764739 89 4419ft 0kts

Navigation Log

Ident Type
Flight plan parsing failed, navigation log unavailable